Llanybydder, United Kingdom
Current Conditions -  °F | °C
As of 7:50 AM on Friday 19 Dec 2014 (Local Time) from EGOP Reporting Station
Broken Clouds Broken Clouds  
Wind Chill:   Ceiling: 4200
Heat Index:   Visibility: 6mi
Dew Point:   Wind: 15mph
Humidity: 76%   Direction: 290°WNW
Pressure: 29.97"   Gusts: NA
Location:  52.07°N, 4.16°W
Report Text: EGOP 190750Z AUTO 29013KT 9999 // BKN042/// SCT049/// 08/04 Q1015
Loading
Personal Weather Stations






























Interactive Weather Map New forecast layout! Learn more

10-Day Weather Forecast

Advertisements
Track Severe Weather on mobile